Time;durP1;ratioP1;P1;durP2;ratioP2;P2;SDS_P1;SDS_P2;PMS_P1;PMS_P2;Temp;Humidity;BMP_temperature;BMP_pressure;BME280_temperature;BME280_humidity;BME280_pressure;Samples;Min_cycle;Max_cycle;Signal;HPM_P1;HPM_P2
2021/10/29 00:01:49;;;;;;;20.80;16.85;;;;;;;;;;5032169;28;20539;-58
2021/10/29 00:04:15;;;;;;;20.35;17.23;;;;;;;;;;5054562;28;20124;-57
2021/10/29 00:06:42;;;;;;;19.67;15.95;;;;;;;;;;5054640;28;20082;-57
2021/10/29 00:09:07;;;;;;;22.02;16.92;;;;;;;;;;5055169;28;20139;-58
2021/10/29 00:11:34;;;;;;;23.23;16.92;;;;;;;;;;5055693;28;20468;-57
2021/10/29 00:14:00;;;;;;;22.40;18.10;;;;;;;;;;5055418;28;20411;-58
2021/10/29 00:16:26;;;;;;;25.30;17.58;;;;;;;;;;5054717;28;20091;-56
2021/10/29 00:18:52;;;;;;;18.05;15.52;;;;;;;;;;5055190;28;20076;-56
2021/10/29 00:21:18;;;;;;;19.23;15.88;;;;;;;;;;5055097;28;20044;-58
2021/10/29 00:23:44;;;;;;;25.10;18.23;;;;;;;;;;5054935;28;20021;-57
2021/10/29 00:26:10;;;;;;;20.55;17.17;;;;;;;;;;5054795;28;20028;-59
2021/10/29 00:28:35;;;;;;;22.38;17.13;;;;;;;;;;5054941;28;20029;-58
2021/10/29 00:31:01;;;;;;;22.83;17.65;;;;;;;;;;5055003;28;20029;-57
2021/10/29 00:33:28;;;;;;;26.13;16.83;;;;;;;;;;5055198;28;20021;-57
2021/10/29 00:35:54;;;;;;;17.45;15.05;;;;;;;;;;5054865;28;20041;-58
2021/10/29 00:38:20;;;;;;;20.10;15.50;;;;;;;;;;5053932;28;20048;-58
2021/10/29 00:40:46;;;;;;;22.77;16.33;;;;;;;;;;5054463;28;20485;-58
2021/10/29 00:43:12;;;;;;;25.33;17.27;;;;;;;;;;5055251;28;20036;-57
2021/10/29 00:45:39;;;;;;;21.30;16.23;;;;;;;;;;5055127;28;20028;-58
2021/10/29 00:48:06;;;;;;;20.23;16.00;;;;;;;;;;5053802;28;20545;-57
2021/10/29 00:50:32;;;;;;;20.60;15.82;;;;;;;;;;5054631;28;20029;-58
2021/10/29 00:52:58;;;;;;;22.13;16.23;;;;;;;;;;5054435;28;20451;-57
2021/10/29 00:55:25;;;;;;;22.80;18.13;;;;;;;;;;5054797;28;20025;-57
2021/10/29 00:57:51;;;;;;;20.08;16.25;;;;;;;;;;5053883;28;20029;-58
2021/10/29 01:00:17;;;;;;;21.70;17.58;;;;;;;;;;5054387;28;20037;-58
2021/10/29 01:02:43;;;;;;;19.15;15.77;;;;;;;;;;5054217;28;20029;-57
2021/10/29 01:05:09;;;;;;;22.27;15.40;;;;;;;;;;5054337;28;20458;-58
2021/10/29 01:07:35;;;;;;;20.50;17.63;;;;;;;;;;5053682;28;20029;-58
2021/10/29 01:10:01;;;;;;;23.42;16.48;;;;;;;;;;5054470;28;20458;-58
2021/10/29 01:12:27;;;;;;;22.45;15.93;;;;;;;;;;5054201;28;20546;-58
2021/10/29 01:14:55;;;;;;;20.63;15.63;;;;;;;;;;5054034;28;20029;-58
2021/10/29 01:17:21;;;;;;;20.20;16.15;;;;;;;;;;5053438;28;20055;-58
2021/10/29 01:19:49;;;;;;;22.35;16.80;;;;;;;;;;5053965;28;20039;-58
2021/10/29 01:22:15;;;;;;;23.55;15.35;;;;;;;;;;5053816;28;20529;-57
2021/10/29 01:24:41;;;;;;;19.83;15.32;;;;;;;;;;5053977;28;20032;-58
2021/10/29 01:27:11;;;;;;;19.85;16.02;;;;;;;;;;5053246;28;20071;-57
2021/10/29 01:29:38;;;;;;;18.33;15.20;;;;;;;;;;5053696;28;20021;-57
2021/10/29 01:32:05;;;;;;;17.40;14.40;;;;;;;;;;5053788;28;20029;-56
2021/10/29 01:34:32;;;;;;;20.63;15.77;;;;;;;;;;5053594;28;20021;-58
2021/10/29 01:36:58;;;;;;;21.55;15.13;;;;;;;;;;5053271;28;20040;-57
2021/10/29 01:39:24;;;;;;;16.73;14.90;;;;;;;;;;5053603;28;20025;-57
2021/10/29 01:41:50;;;;;;;21.35;16.13;;;;;;;;;;5053654;28;20479;-58
2021/10/29 01:44:16;;;;;;;16.30;14.05;;;;;;;;;;5053999;28;20416;-56
2021/10/29 01:46:42;;;;;;;17.70;14.07;;;;;;;;;;5052772;28;20021;-57
2021/10/29 01:49:08;;;;;;;20.33;14.77;;;;;;;;;;5053293;28;20096;-57
2021/10/29 01:51:34;;;;;;;19.63;14.10;;;;;;;;;;5053568;28;20036;-57
2021/10/29 01:54:00;;;;;;;19.05;14.73;;;;;;;;;;5053545;28;20025;-58
2021/10/29 01:56:27;;;;;;;18.73;14.10;;;;;;;;;;5052584;28;20125;-58
2021/10/29 01:58:53;;;;;;;22.17;14.80;;;;;;;;;;5053366;28;20032;-57
2021/10/29 02:01:19;;;;;;;19.85;14.48;;;;;;;;;;5053113;28;20033;-58
2021/10/29 02:03:45;;;;;;;18.92;15.52;;;;;;;;;;5052926;28;20152;-57
2021/10/29 02:06:11;;;;;;;16.67;14.63;;;;;;;;;;5052611;28;20035;-58
2021/10/29 02:08:37;;;;;;;15.38;13.52;;;;;;;;;;5052946;28;20099;-57
2021/10/29 02:11:04;;;;;;;16.35;14.18;;;;;;;;;;5053130;28;20033;-58
2021/10/29 02:13:30;;;;;;;17.83;14.20;;;;;;;;;;5053026;28;20108;-58
2021/10/29 02:15:56;;;;;;;18.15;13.95;;;;;;;;;;5052854;28;20024;-58
2021/10/29 02:18:22;;;;;;;22.60;16.27;;;;;;;;;;5052198;28;20417;-58
2021/10/29 02:20:48;;;;;;;25.10;19.38;;;;;;;;;;5052897;28;20036;-57
2021/10/29 02:23:14;;;;;;;27.65;22.90;;;;;;;;;;5052930;28;20111;-58
2021/10/29 02:25:44;;;;;;;23.85;19.85;;;;;;;;;;5052384;28;20427;-59
2021/10/29 02:28:14;;;;;;;25.17;21.58;;;;;;;;;;5052053;28;20116;-58
2021/10/29 02:30:40;;;;;;;25.90;21.45;;;;;;;;;;5052664;28;20082;-57
2021/10/29 02:33:06;;;;;;;20.85;18.63;;;;;;;;;;5052806;28;20029;-58
2021/10/29 02:35:32;;;;;;;20.52;17.67;;;;;;;;;;5052612;28;20040;-58
2021/10/29 02:37:58;;;;;;;20.00;16.13;;;;;;;;;;5051871;28;20021;-57
2021/10/29 02:40:24;;;;;;;22.75;18.65;;;;;;;;;;5052830;28;20219;-57
2021/10/29 02:42:50;;;;;;;21.25;18.42;;;;;;;;;;5052910;28;20562;-58
2021/10/29 02:45:16;;;;;;;26.88;20.20;;;;;;;;;;5052262;28;20177;-58
2021/10/29 02:47:47;;;;;;;23.00;18.77;;;;;;;;;;5051853;28;20489;-57
2021/10/29 02:50:13;;;;;;;20.17;17.88;;;;;;;;;;5052739;28;20450;-57
2021/10/29 02:52:39;;;;;;;20.88;18.77;;;;;;;;;;5052504;28;20219;-57
2021/10/29 02:55:05;;;;;;;22.27;18.17;;;;;;;;;;5052429;28;20036;-58
2021/10/29 02:57:31;;;;;;;17.08;15.35;;;;;;;;;;5051525;28;20021;-57
2021/10/29 02:59:57;;;;;;;21.30;16.17;;;;;;;;;;5052166;28;20356;-57
2021/10/29 03:02:23;;;;;;;18.13;16.17;;;;;;;;;;5052382;28;20021;-57
2021/10/29 03:04:50;;;;;;;21.08;17.40;;;;;;;;;;5052332;28;20061;-58
2021/10/29 03:07:16;;;;;;;24.27;17.38;;;;;;;;;;5051323;28;20033;-58
2021/10/29 03:09:42;;;;;;;18.73;16.83;;;;;;;;;;5052190;28;20032;-57
2021/10/29 03:12:08;;;;;;;22.48;16.33;;;;;;;;;;5052102;28;20065;-58
2021/10/29 03:14:35;;;;;;;19.00;15.98;;;;;;;;;;5051894;28;20548;-58
2021/10/29 03:17:00;;;;;;;19.08;16.20;;;;;;;;;;5051427;28;20052;-56
2021/10/29 03:19:26;;;;;;;15.98;13.13;;;;;;;;;;5052092;28;20028;-58
2021/10/29 03:21:52;;;;;;;19.00;15.50;;;;;;;;;;5051806;28;20120;-57
2021/10/29 03:24:18;;;;;;;21.02;16.02;;;;;;;;;;5052051;28;20033;-57
2021/10/29 03:26:44;;;;;;;16.60;13.40;;;;;;;;;;5051193;28;20379;-59
2021/10/29 03:29:11;;;;;;;17.58;15.05;;;;;;;;;;5052205;28;20078;-58
2021/10/29 03:31:37;;;;;;;18.98;15.38;;;;;;;;;;5046247;28;20032;-58
2021/10/29 03:34:03;;;;;;;18.92;15.40;;;;;;;;;;5052028;28;20025;-57
2021/10/29 03:36:29;;;;;;;18.02;13.80;;;;;;;;;;5050030;28;20029;-56
2021/10/29 03:39:04;;;;;;;18.90;15.45;;;;;;;;;;5054029;28;20124;-57
2021/10/29 03:41:34;;;;;;;15.93;14.02;;;;;;;;;;5055937;28;20087;-57
2021/10/29 03:46:32;;;;;;;18.02;15.35;;;;;;;;;;5054865;28;20031;-58
2021/10/29 03:49:03;;;;;;;18.85;16.70;;;;;;;;;;5056023;28;20052;-58
2021/10/29 03:51:39;;;;;;;20.02;13.85;;;;;;;;;;5055820;28;20045;-57
2021/10/29 03:54:09;;;;;;;19.13;14.98;;;;;;;;;;5055358;28;20036;-57
2021/10/29 03:56:42;;;;;;;17.85;14.82;;;;;;;;;;5055071;28;20033;-57
2021/10/29 03:59:13;;;;;;;17.25;14.50;;;;;;;;;;5056039;28;20433;-54
2021/10/29 04:01:39;;;;;;;20.73;15.65;;;;;;;;;;5055757;28;20032;-58
2021/10/29 04:04:05;;;;;;;20.35;14.88;;;;;;;;;;5055178;28;20033;-57
2021/10/29 04:06:31;;;;;;;15.65;13.98;;;;;;;;;;5054802;28;20372;-57
2021/10/29 04:08:57;;;;;;;20.15;14.77;;;;;;;;;;5055492;28;20032;-57
2021/10/29 04:11:24;;;;;;;17.92;14.95;;;;;;;;;;5055715;28;20024;-58
2021/10/29 04:13:50;;;;;;;14.30;12.80;;;;;;;;;;5055430;28;20062;-55
2021/10/29 04:16:17;;;;;;;18.83;15.48;;;;;;;;;;5054441;28;20017;-57
2021/10/29 04:18:43;;;;;;;21.83;15.88;;;;;;;;;;5055223;28;20410;-57
2021/10/29 04:21:09;;;;;;;19.10;14.52;;;;;;;;;;5055124;28;20432;-57
2021/10/29 04:23:35;;;;;;;19.27;15.57;;;;;;;;;;5055248;28;20132;-58
2021/10/29 04:26:01;;;;;;;20.25;14.65;;;;;;;;;;5054442;28;20111;-56
2021/10/29 04:28:28;;;;;;;20.55;14.25;;;;;;;;;;5054442;28;20025;-57
2021/10/29 04:30:54;;;;;;;15.30;12.88;;;;;;;;;;5055220;28;20032;-54
2021/10/29 04:33:21;;;;;;;18.73;15.18;;;;;;;;;;5054956;28;20391;-57
2021/10/29 04:35:48;;;;;;;15.02;13.30;;;;;;;;;;5054535;28;20500;-57
2021/10/29 04:38:14;;;;;;;21.23;15.52;;;;;;;;;;5054241;28;20398;-56
2021/10/29 04:40:41;;;;;;;23.17;14.30;;;;;;;;;;5054946;28;20033;-57
2021/10/29 04:43:08;;;;;;;20.92;15.80;;;;;;;;;;5054960;28;20481;-54
2021/10/29 04:45:34;;;;;;;17.30;14.27;;;;;;;;;;5054810;28;20437;-58
2021/10/29 04:48:01;;;;;;;22.75;15.73;;;;;;;;;;5054497;28;20053;-57
2021/10/29 04:50:27;;;;;;;19.98;15.40;;;;;;;;;;5054481;28;20102;-58
2021/10/29 04:52:53;;;;;;;19.25;14.88;;;;;;;;;;5054734;28;20031;-57
2021/10/29 04:55:19;;;;;;;19.98;15.10;;;;;;;;;;5054518;28;20108;-58
2021/10/29 04:57:45;;;;;;;21.17;15.60;;;;;;;;;;5053993;28;20031;-55
2021/10/29 05:00:11;;;;;;;25.90;17.08;;;;;;;;;;5055052;28;20029;-58
2021/10/29 05:02:37;;;;;;;17.88;14.88;;;;;;;;;;5054399;28;20021;-57
2021/10/29 05:05:07;;;;;;;20.30;16.70;;;;;;;;;;5054262;28;20170;-58
2021/10/29 05:07:33;;;;;;;20.00;17.37;;;;;;;;;;5053856;28;20060;-58
2021/10/29 05:09:59;;;;;;;22.88;17.20;;;;;;;;;;5054326;28;20049;-58
2021/10/29 05:12:26;;;;;;;19.75;14.88;;;;;;;;;;5054681;28;20029;-58
2021/10/29 05:14:52;;;;;;;23.38;16.63;;;;;;;;;;5053930;28;20029;-57
2021/10/29 05:17:18;;;;;;;21.23;16.60;;;;;;;;;;5053249;28;20029;-57
2021/10/29 05:19:44;;;;;;;21.83;16.77;;;;;;;;;;5054329;28;20029;-58
2021/10/29 05:22:11;;;;;;;19.70;14.30;;;;;;;;;;5053990;28;20120;-57
2021/10/29 05:24:37;;;;;;;28.30;16.60;;;;;;;;;;5053377;28;20024;-57
2021/10/29 05:27:04;;;;;;;26.38;17.58;;;;;;;;;;5053075;28;20067;-57
2021/10/29 05:29:29;;;;;;;28.23;17.48;;;;;;;;;;5053723;28;20040;-57
2021/10/29 05:31:58;;;;;;;24.67;17.92;;;;;;;;;;5048166;28;20126;-58
2021/10/29 05:34:24;;;;;;;16.73;14.73;;;;;;;;;;5048856;28;20025;-58
2021/10/29 05:36:50;;;;;;;15.48;13.55;;;;;;;;;;5053348;28;20039;-58
2021/10/29 05:39:16;;;;;;;17.92;13.20;;;;;;;;;;5053021;28;20056;-56
2021/10/29 05:41:47;;;;;;;14.80;13.07;;;;;;;;;;5052293;28;20029;-58
2021/10/29 05:44:14;;;;;;;14.27;11.73;;;;;;;;;;5052477;28;20048;-58
2021/10/29 05:46:42;;;;;;;15.13;12.23;;;;;;;;;;5051411;28;20043;-58
2021/10/29 05:49:13;;;;;;;16.67;12.35;;;;;;;;;;5052246;28;20086;-57
2021/10/29 05:51:43;;;;;;;;;;;;;;;;;;5053341;28;20041;-57
2021/10/29 05:54:14;;;;;;;13.65;11.45;;;;;;;;;;5052442;28;19909;-58
2021/10/29 05:56:40;;;;;;;14.57;11.95;;;;;;;;;;5051122;28;20056;-57
2021/10/29 05:59:06;;;;;;;11.82;10.63;;;;;;;;;;5052532;28;20037;-58
2021/10/29 06:01:33;;;;;;;16.55;12.07;;;;;;;;;;5051886;28;20036;-55
2021/10/29 06:03:59;;;;;;;11.93;9.93;;;;;;;;;;5051922;28;20153;-58
2021/10/29 06:06:25;;;;;;;16.42;11.45;;;;;;;;;;5052127;28;20021;-57
2021/10/29 06:08:51;;;;;;;14.02;10.77;;;;;;;;;;5052659;28;20033;-57
2021/10/29 06:11:18;;;;;;;14.82;11.30;;;;;;;;;;5052053;28;20025;-57
2021/10/29 06:13:44;;;;;;;10.80;9.18;;;;;;;;;;5051973;28;20205;-55
2021/10/29 06:16:11;;;;;;;10.63;9.38;;;;;;;;;;5051928;28;20020;-57
2021/10/29 06:18:37;;;;;;;12.55;10.00;;;;;;;;;;5052529;28;20475;-57
2021/10/29 06:21:04;;;;;;;10.55;9.10;;;;;;;;;;5052004;28;20057;-58
2021/10/29 06:23:39;;;;;;;9.40;8.50;;;;;;;;;;5051704;28;20363;-58
2021/10/29 06:26:18;;;;;;;10.50;9.20;;;;;;;;;;5043925;28;20029;-58
2021/10/29 06:28:44;;;;;;;11.80;9.50;;;;;;;;;;5051789;28;20052;-55
2021/10/29 06:31:12;;;;;;;10.20;9.10;;;;;;;;;;5051935;28;20029;-58
2021/10/29 06:33:41;;;;;;;8.82;7.50;;;;;;;;;;5051564;28;20025;-57
2021/10/29 06:36:07;;;;;;;9.60;7.93;;;;;;;;;;5052044;28;20395;-55
2021/10/29 06:38:33;;;;;;;9.48;7.68;;;;;;;;;;5051317;28;20526;-58
2021/10/29 06:40:59;;;;;;;9.32;8.35;;;;;;;;;;5052038;28;20064;-57
2021/10/29 06:44:04;;;;;;;10.60;9.48;;;;;;;;;;5051490;28;20460;-58
2021/10/29 06:46:28;;;;;;;9.07;8.15;;;;;;;;;;5048994;28;20094;-58
2021/10/29 06:49:08;;;;;;;8.35;7.43;;;;;;;;;;5051688;28;20036;-58
2021/10/29 07:40:18;;;;;;;12.85;11.50;;;;;;;;;;5051628;28;20040;-57
2021/10/29 07:43:01;;;;;;;14.60;11.68;;;;;;;;;;5054599;28;20047;-57
2021/10/29 07:45:27;;;;;;;14.13;11.90;;;;;;;;;;5051478;28;20033;-57
2021/10/29 07:47:55;;;;;;;15.98;14.45;;;;;;;;;;5050726;28;20064;-58
2021/10/29 07:50:21;;;;;;;16.90;13.02;;;;;;;;;;5049628;28;20040;-59
2021/10/29 07:52:48;;;;;;;15.82;12.45;;;;;;;;;;5050397;28;20061;-56
2021/10/29 07:55:15;;;;;;;18.45;14.88;;;;;;;;;;5051261;28;20033;-58
2021/10/29 07:57:42;;;;;;;16.13;14.15;;;;;;;;;;5049824;28;20534;-58
2021/10/29 08:00:09;;;;;;;16.48;13.45;;;;;;;;;;5050929;28;20037;-58
2021/10/29 08:02:35;;;;;;;18.10;14.13;;;;;;;;;;5051233;28;20067;-58
2021/10/29 08:05:01;;;;;;;18.90;13.68;;;;;;;;;;5051041;28;20395;-57
2021/10/29 08:07:28;;;;;;;16.15;12.77;;;;;;;;;;5050105;28;20026;-58
2021/10/29 08:09:54;;;;;;;20.13;14.13;;;;;;;;;;5050336;28;20032;-59
2021/10/29 08:12:20;;;;;;;17.70;12.68;;;;;;;;;;5050458;28;20025;-54
2021/10/29 08:14:47;;;;;;;17.05;12.48;;;;;;;;;;5051361;28;20044;-57
2021/10/29 08:17:14;;;;;;;14.38;12.88;;;;;;;;;;5050115;28;20029;-58
2021/10/29 08:19:40;;;;;;;13.13;11.70;;;;;;;;;;5049838;28;20021;-58
2021/10/29 08:22:06;;;;;;;18.92;12.70;;;;;;;;;;5050215;28;20441;-58
2021/10/29 08:24:33;;;;;;;14.70;12.65;;;;;;;;;;5051948;28;20048;-58
2021/10/29 08:27:00;;;;;;;14.13;12.63;;;;;;;;;;5055989;28;20025;-58
2021/10/29 08:29:26;;;;;;;15.32;11.80;;;;;;;;;;5052687;28;20379;-58
2021/10/29 08:31:52;;;;;;;14.13;12.45;;;;;;;;;;5053715;28;20037;-57
2021/10/29 08:34:22;;;;;;;15.82;12.73;;;;;;;;;;5053928;28;20470;-58
2021/10/29 08:36:48;;;;;;;15.70;11.27;;;;;;;;;;5053574;28;20478;-58
2021/10/29 08:39:14;;;;;;;16.48;11.77;;;;;;;;;;5053738;28;20033;-58
2021/10/29 08:41:43;;;;;;;20.90;12.63;;;;;;;;;;5044081;28;20041;-58
2021/10/29 08:44:09;;;;;;;14.13;11.57;;;;;;;;;;5057972;28;20025;-58
2021/10/29 08:46:35;;;;;;;12.30;10.77;;;;;;;;;;5056308;28;20048;-57
2021/10/29 08:49:02;;;;;;;14.77;10.27;;;;;;;;;;5054283;28;20025;-58
2021/10/29 08:51:29;;;;;;;11.65;9.60;;;;;;;;;;5054709;28;20064;-56
2021/10/29 08:53:56;;;;;;;13.30;11.35;;;;;;;;;;5053785;28;20086;-58
2021/10/29 08:56:26;;;;;;;16.40;11.25;;;;;;;;;;5053758;28;20025;-58
2021/10/29 08:59:03;;;;;;;11.65;10.45;;;;;;;;;;5054068;28;20044;-58
2021/10/29 09:01:29;;;;;;;15.95;11.48;;;;;;;;;;5053212;28;20040;-58
2021/10/29 09:04:02;;;;;;;16.63;11.15;;;;;;;;;;5053364;28;20021;-58
2021/10/29 09:09:29;;;;;;;17.58;11.43;;;;;;;;;;5042391;28;20158;-59
2021/10/29 09:12:12;;;;;;;13.60;10.40;;;;;;;;;;5054281;28;20036;-58
2021/10/29 09:33:52;;;;;;;13.23;10.68;;;;;;;;;;5064997;28;20493;-58
2021/10/29 09:36:28;;;;;;;13.68;11.35;;;;;;;;;;5060266;28;20403;-59
2021/10/29 09:38:55;;;;;;;16.85;11.85;;;;;;;;;;5071028;28;20136;-59
2021/10/29 09:41:23;;;;;;;54.13;19.05;;;;;;;;;;5073102;28;20586;-58
2021/10/29 09:43:54;;;;;;;17.40;11.15;;;;;;;;;;5054227;28;20063;-57
2021/10/29 09:46:37;;;;;;;13.98;11.77;;;;;;;;;;5053647;28;20121;-58
2021/10/29 09:49:10;;;;;;;11.60;9.77;;;;;;;;;;5050703;28;20037;-59
2021/10/29 09:51:49;;;;;;;16.80;11.05;;;;;;;;;;5048057;28;20023;-56
2021/10/29 09:54:17;;;;;;;14.90;10.10;;;;;;;;;;5052782;28;20033;-59
2021/10/29 09:56:56;;;;;;;12.05;10.88;;;;;;;;;;5052144;28;20036;-58
2021/10/29 09:59:22;;;;;;;13.63;10.80;;;;;;;;;;5052984;28;20043;-59
2021/10/29 10:01:48;;;;;;;16.35;11.95;;;;;;;;;;5052282;28;20382;-56
2021/10/29 10:04:14;;;;;;;16.45;11.02;;;;;;;;;;5052570;28;20025;-56
2021/10/29 10:06:42;;;;;;;12.45;10.82;;;;;;;;;;5052238;28;20037;-57
2021/10/29 10:09:09;;;;;;;13.68;11.48;;;;;;;;;;5052270;28;20033;-56
2021/10/29 10:11:36;;;;;;;26.13;14.13;;;;;;;;;;5052691;28;20048;-57
2021/10/29 10:14:04;;;;;;;11.80;10.43;;;;;;;;;;5052016;28;20032;-57
2021/10/29 10:16:32;;;;;;;15.02;11.38;;;;;;;;;;5052066;28;20443;-56
2021/10/29 10:18:59;;;;;;;14.15;10.75;;;;;;;;;;5052448;28;20063;-58
2021/10/29 10:21:27;;;;;;;17.83;11.75;;;;;;;;;;5048436;28;20427;-57
2021/10/29 10:23:55;;;;;;;11.95;10.75;;;;;;;;;;5057215;28;20041;-55
2021/10/29 10:26:42;;;;;;;13.20;11.73;;;;;;;;;;5051197;28;20067;-57
2021/10/29 10:29:24;;;;;;;12.52;11.30;;;;;;;;;;5061758;28;20036;-57
2021/10/29 10:43:14;;;;;;;12.63;11.32;;;;;;;;;;5051312;28;20040;-59
2021/10/29 10:48:31;;;;;;;15.93;11.32;;;;;;;;;;5065333;28;20515;-58
2021/10/29 10:51:20;;;;;;;11.88;10.43;;;;;;;;;;5052294;28;20037;-57
2021/10/29 10:53:54;;;;;;;16.38;11.80;;;;;;;;;;5051694;28;20037;-57
2021/10/29 11:02:01;;;;;;;15.52;11.23;;;;;;;;;;5053538;28;20052;-56
2021/10/29 11:04:38;;;;;;;12.02;10.80;;;;;;;;;;5049765;28;20049;-57
2021/10/29 11:07:40;;;;;;;11.15;9.93;;;;;;;;;;5050687;28;20047;-57
2021/10/29 11:10:09;;;;;;;12.07;10.73;;;;;;;;;;5051392;28;20033;-57
2021/10/29 11:12:41;;;;;;;15.23;9.63;;;;;;;;;;5051247;28;20032;-57
2021/10/29 11:15:07;;;;;;;14.70;10.13;;;;;;;;;;5051292;28;20025;-57
2021/10/29 11:17:55;;;;;;;12.13;10.45;;;;;;;;;;5050386;28;20033;-57
2021/10/29 11:20:34;;;;;;;9.20;8.30;;;;;;;;;;5045971;28;20025;-57
2021/10/29 11:23:05;;;;;;;9.30;8.40;;;;;;;;;;5051457;28;20040;-57
2021/10/29 11:25:46;;;;;;;11.52;8.50;;;;;;;;;;5051530;28;20154;-57
2021/10/29 11:28:12;;;;;;;10.55;8.20;;;;;;;;;;5049666;28;20066;-57
2021/10/29 11:30:42;;;;;;;10.38;8.43;;;;;;;;;;5051107;28;20040;-57
2021/10/29 11:33:09;;;;;;;9.97;7.37;;;;;;;;;;5050698;28;20423;-57
2021/10/29 11:35:36;;;;;;;11.02;7.50;;;;;;;;;;5051139;28;20363;-57
2021/10/29 11:38:03;;;;;;;8.63;6.55;;;;;;;;;;5049800;28;20041;-57
2021/10/29 11:40:29;;;;;;;8.82;6.72;;;;;;;;;;5051528;28;20471;-57
2021/10/29 11:42:55;;;;;;;9.43;6.70;;;;;;;;;;5050700;28;20044;-57
2021/10/29 11:45:35;;;;;;;15.40;7.25;;;;;;;;;;5052927;28;20376;-57
2021/10/29 11:48:03;;;;;;;8.32;6.80;;;;;;;;;;5056231;28;20048;-57
2021/10/29 11:50:30;;;;;;;7.40;6.10;;;;;;;;;;5051548;28;20097;-56
2021/10/29 11:52:59;;;;;;;7.53;6.05;;;;;;;;;;5051509;28;20052;-58
2021/10/29 11:55:36;;;;;;;8.98;6.55;;;;;;;;;;5050521;28;20025;-58
2021/10/29 11:58:09;;;;;;;8.15;6.10;;;;;;;;;;5050682;28;20066;-57
2021/10/29 12:00:47;;;;;;;7.03;5.90;;;;;;;;;;5053205;28;20021;-57
2021/10/29 12:08:42;;;;;;;8.07;6.50;;;;;;;;;;5055406;28;20036;-58
2021/10/29 12:11:09;;;;;;;9.65;7.10;;;;;;;;;;5054305;28;20025;-57
2021/10/29 12:13:45;;;;;;;8.73;6.43;;;;;;;;;;5053471;28;20029;-58
2021/10/29 12:16:21;;;;;;;9.55;6.55;;;;;;;;;;5054276;28;20078;-58
2021/10/29 12:18:58;;;;;;;6.53;5.82;;;;;;;;;;5051680;28;20367;-57
2021/10/29 12:21:27;;;;;;;7.55;5.43;;;;;;;;;;5046323;28;20036;-57
2021/10/29 12:23:53;;;;;;;8.45;6.07;;;;;;;;;;5054233;28;20431;-57
2021/10/29 12:26:24;;;;;;;10.32;5.78;;;;;;;;;;5053096;28;20029;-58
2021/10/29 12:28:55;;;;;;;7.78;6.30;;;;;;;;;;5054422;28;20486;-57
2021/10/29 13:04:01;;;;;;;10.10;7.25;;;;;;;;;;5038001;28;20052;-58
2021/10/29 13:06:31;;;;;;;7.07;5.75;;;;;;;;;;5053682;28;20032;-58
2021/10/29 13:08:57;;;;;;;7.30;6.57;;;;;;;;;;5054236;28;20029;-57
2021/10/29 13:11:25;;;;;;;9.63;6.38;;;;;;;;;;5053618;28;20036;-57
2021/10/29 13:13:57;;;;;;;8.95;6.18;;;;;;;;;;5054005;28;20033;-57
2021/10/29 13:16:23;;;;;;;7.47;6.68;;;;;;;;;;5051846;28;20044;-58
2021/10/29 13:28:58;;;;;;;7.93;6.57;;;;;;;;;;5052993;28;20098;-58
2021/10/29 13:36:45;;;;;;;8.10;6.47;;;;;;;;;;5052910;28;20052;-58
2021/10/29 14:03:35;;;;;;;6.97;6.30;;;;;;;;;;5052022;28;20557;-58
2021/10/29 14:28:23;;;;;;;8.00;6.10;;;;;;;;;;5058512;28;20188;-58
2021/10/29 14:31:04;;;;;;;7.18;6.47;;;;;;;;;;5053934;28;20029;-58
2021/10/29 14:33:33;;;;;;;7.60;5.78;;;;;;;;;;5061346;28;20021;-58
2021/10/29 14:36:01;;;;;;;7.15;5.68;;;;;;;;;;5052443;28;20052;-58
2021/10/29 14:41:07;;;;;;;6.18;5.57;;;;;;;;;;5052356;28;20119;-58
2021/10/29 14:44:00;;;;;;;8.80;5.90;;;;;;;;;;5052305;28;20498;-58
2021/10/29 14:49:40;;;;;;;7.43;6.63;;;;;;;;;;5040146;28;20039;-58
2021/10/29 15:15:06;;;;;;;7.18;5.93;;;;;;;;;;5051864;28;20422;-59
2021/10/29 15:33:16;;;;;;;10.85;7.72;;;;;;;;;;5052688;28;20083;-58
2021/10/29 15:46:37;;;;;;;11.45;6.10;;;;;;;;;;5057239;28;20033;-59
2021/10/29 15:49:36;;;;;;;7.57;5.85;;;;;;;;;;5058286;28;20116;-58
2021/10/29 15:51:54;;;;;;;6.53;5.65;;;;;;;;;;5056597;28;20117;-58
2021/10/29 15:54:20;;;;;;;7.63;5.80;;;;;;;;;;5057549;28;20398;-59
2021/10/29 15:56:51;;;;;;;9.82;6.57;;;;;;;;;;5057058;28;20259;-59
2021/10/29 16:02:12;;;;;;;7.07;5.97;;;;;;;;;;5055494;28;20043;-59
2021/10/29 16:18:22;;;;;;;12.90;8.02;;;;;;;;;;5057874;28;20078;-58
2021/10/29 16:20:47;;;;;;;9.32;6.88;;;;;;;;;;5057678;28;20506;-58
2021/10/29 16:23:14;;;;;;;11.10;7.30;;;;;;;;;;5057684;28;20029;-56
2021/10/29 16:25:51;;;;;;;7.15;5.78;;;;;;;;;;5057767;28;20041;-59
2021/10/29 16:28:20;;;;;;;8.77;6.10;;;;;;;;;;5042366;28;20021;-58
2021/10/29 16:30:46;;;;;;;9.38;6.55;;;;;;;;;;5056850;28;20032;-59
2021/10/29 16:35:56;;;;;;;7.40;6.05;;;;;;;;;;5057847;28;20063;-58
2021/10/29 16:38:23;;;;;;;9.27;6.50;;;;;;;;;;5056895;28;20134;-59
2021/10/29 16:40:49;;;;;;;12.35;7.45;;;;;;;;;;5056745;28;20040;-58
2021/10/29 16:43:15;;;;;;;10.13;6.68;;;;;;;;;;5057680;28;20467;-58
2021/10/29 16:45:46;;;;;;;8.88;6.32;;;;;;;;;;5054013;28;20491;-57
2021/10/29 16:48:13;;;;;;;8.32;5.57;;;;;;;;;;5053225;28;20419;-57
2021/10/29 16:50:39;;;;;;;8.48;6.35;;;;;;;;;;5053593;28;20387;-59
2021/10/29 16:53:05;;;;;;;7.25;6.07;;;;;;;;;;5053772;28;20029;-59
2021/10/29 16:55:31;;;;;;;8.75;5.78;;;;;;;;;;5053381;28;20025;-59
2021/10/29 16:57:57;;;;;;;6.80;5.80;;;;;;;;;;5053506;28;20108;-59
2021/10/29 17:00:24;;;;;;;6.97;5.78;;;;;;;;;;5054081;28;20028;-59
2021/10/29 17:02:50;;;;;;;7.75;6.10;;;;;;;;;;5054344;28;20037;-59
2021/10/29 17:05:16;;;;;;;9.25;6.50;;;;;;;;;;5054374;28;20078;-57
2021/10/29 17:07:42;;;;;;;8.88;7.25;;;;;;;;;;5053306;28;20513;-56
2021/10/29 17:10:10;;;;;;;8.60;7.65;;;;;;;;;;5053736;28;20108;-57
2021/10/29 17:12:37;;;;;;;8.52;7.63;;;;;;;;;;5054257;28;20387;-56
2021/10/29 17:15:04;;;;;;;8.50;7.60;;;;;;;;;;5053772;28;20025;-58
2021/10/29 17:17:30;;;;;;;11.18;7.50;;;;;;;;;;5052964;28;20017;-59
2021/10/29 17:19:56;;;;;;;11.75;8.13;;;;;;;;;;5052260;28;20017;-57
2021/10/29 17:22:22;;;;;;;8.60;7.68;;;;;;;;;;5053339;28;20367;-58
2021/10/29 17:24:48;;;;;;;9.43;7.85;;;;;;;;;;5054057;28;20098;-56
2021/10/29 17:27:15;;;;;;;13.25;9.35;;;;;;;;;;5053337;28;20033;-57
2021/10/29 17:29:41;;;;;;;9.38;8.38;;;;;;;;;;5053565;28;20021;-58
2021/10/29 17:32:11;;;;;;;13.00;10.25;;;;;;;;;;5053513;28;20174;-58
2021/10/29 17:34:38;;;;;;;11.77;9.02;;;;;;;;;;5053416;28;20028;-58
2021/10/29 17:37:04;;;;;;;12.95;10.10;;;;;;;;;;5052989;28;20167;-57
2021/10/29 17:39:30;;;;;;;13.50;10.55;;;;;;;;;;5053223;28;20083;-57
2021/10/29 17:41:56;;;;;;;12.52;9.65;;;;;;;;;;5053316;28;20033;-57
2021/10/29 17:44:23;;;;;;;14.88;11.27;;;;;;;;;;5053593;28;20160;-59
2021/10/29 17:46:49;;;;;;;13.70;11.05;;;;;;;;;;5052132;28;20093;-59
2021/10/29 17:49:16;;;;;;;19.10;10.60;;;;;;;;;;5053281;28;20099;-59
2021/10/29 17:51:43;;;;;;;13.32;10.77;;;;;;;;;;5053573;28;20036;-59
2021/10/29 17:54:09;;;;;;;12.40;9.43;;;;;;;;;;5053147;28;20021;-58
2021/10/29 17:56:36;;;;;;;13.65;10.50;;;;;;;;;;5050496;28;20025;-58
2021/10/29 17:59:04;;;;;;;13.07;9.82;;;;;;;;;;5053465;28;20037;-58
2021/10/29 18:01:30;;;;;;;13.35;10.05;;;;;;;;;;5053123;28;20036;-58
2021/10/29 18:03:57;;;;;;;15.50;10.85;;;;;;;;;;5052524;28;20459;-58
2021/10/29 18:06:23;;;;;;;13.82;10.60;;;;;;;;;;5051639;28;20045;-59
2021/10/29 18:09:02;;;;;;;12.70;10.00;;;;;;;;;;5053171;28;20395;-58
2021/10/29 18:11:28;;;;;;;11.05;9.57;;;;;;;;;;5052718;28;20033;-58
2021/10/29 18:13:54;;;;;;;11.98;9.05;;;;;;;;;;5052914;28;20093;-58
2021/10/29 18:16:20;;;;;;;15.82;9.32;;;;;;;;;;5054962;28;20054;-59
2021/10/29 18:18:46;;;;;;;13.18;10.25;;;;;;;;;;5072898;28;20028;-58
2021/10/29 18:21:12;;;;;;;10.55;8.77;;;;;;;;;;5056424;28;20029;-59
2021/10/29 18:23:38;;;;;;;11.52;8.75;;;;;;;;;;5052395;28;20029;-59
2021/10/29 18:26:04;;;;;;;8.85;7.95;;;;;;;;;;5053057;28;20345;-59
2021/10/29 18:28:30;;;;;;;13.07;9.90;;;;;;;;;;5051693;28;20028;-59
2021/10/29 18:30:56;;;;;;;13.48;9.60;;;;;;;;;;5051519;28;20505;-58
2021/10/29 18:33:22;;;;;;;11.43;9.63;;;;;;;;;;5052283;28;20025;-58
2021/10/29 18:35:48;;;;;;;11.48;9.52;;;;;;;;;;5052361;28;20086;-58
2021/10/29 18:38:15;;;;;;;18.30;12.10;;;;;;;;;;5051731;28;20029;-59
2021/10/29 18:40:41;;;;;;;18.80;12.32;;;;;;;;;;5052131;28;20013;-58
2021/10/29 18:43:07;;;;;;;13.52;11.63;;;;;;;;;;5052018;28;20025;-57
2021/10/29 18:45:34;;;;;;;13.82;11.35;;;;;;;;;;5052259;28;20391;-58
2021/10/29 18:48:00;;;;;;;14.48;11.45;;;;;;;;;;5051420;28;20025;-59
2021/10/29 18:50:26;;;;;;;10.80;9.18;;;;;;;;;;5051822;28;20536;-57
2021/10/29 18:52:52;;;;;;;15.43;10.75;;;;;;;;;;5051774;28;20028;-58
2021/10/29 18:55:18;;;;;;;13.15;11.02;;;;;;;;;;5052670;28;20017;-56
2021/10/29 18:57:45;;;;;;;13.18;10.23;;;;;;;;;;5051374;28;20352;-58